»·PEaware :: OEFBC KCMA-KDLO

OEFBC :: KCMA-KDLO

FLIGHT INFORMATION

Flight Status: Arrived
Operator: Unknown
More flights by this operator :: More flights under this callsign
Pilot: Anonymous 28069 (28069)
Aircraft: Diamond DA-62
(DA62)
More flights by this aircraft type
Origin: KCMA Camarillo
United States
Destination: KDLO Delano Mun
United States
More flights between these airports :: More routes between these airports
Route: FIM V299 GMN V23 EHF
File this flight plan on PilotEdge
Remarks:
Altitude:
(Current/Filed)
14,000ft
Speed:
(Current/Filed)
155kts
Departed: 21-Jul-21 09:14 AM
Arrived: 21-Jul-21 09:59 AM
Distance/Time
Traveled:
92nm/0:45
Distance/Time
To Go:
Arrived

Flight Plot

Page will automatically refresh every two minutes.


Map Options




Map Legend


Flown Route
Filed Route
Departure Airport
Arrival Airport
Navaid (VOR, NDB)
Fix

Horizontal Profiles

Position Reports

Time Latitude Longitude Heading Altitude Ground
Speed
21-Jul-21 08:59 34.210455 -119.090029 97 78ft 0kts
21-Jul-21 09:00 34.210455 -119.090029 97 78ft 0kts
21-Jul-21 09:01 34.210455 -119.090029 97 78ft 0kts
21-Jul-21 09:02 34.210455 -119.090029 97 78ft 0kts
21-Jul-21 09:03 34.210455 -119.090029 97 78ft 0kts
21-Jul-21 09:04 34.210455 -119.090029 97 78ft 0kts
21-Jul-21 09:05 34.210455 -119.090029 97 78ft 0kts
21-Jul-21 09:06 34.210455 -119.090028 97 78ft 0kts
21-Jul-21 09:07 34.210455 -119.090028 97 78ft 0kts
21-Jul-21 09:08 34.210455 -119.090028 97 78ft 0kts
21-Jul-21 09:09 34.210983 -119.088733 90 77ft 15kts
21-Jul-21 09:10 34.211478 -119.084646 0 78ft 8kts
21-Jul-21 09:11 34.212823 -119.084621 359 78ft 0kts
21-Jul-21 09:12 34.212823 -119.084621 359 78ft 0kts
21-Jul-21 09:13 34.213691 -119.095892 268 106ft 101kts
21-Jul-21 09:14 34.217188 -119.132766 285 1073ft 111kts
21-Jul-21 09:15 34.225929 -119.168374 286 2131ft 110kts
21-Jul-21 09:16 34.234969 -119.204255 286 3155ft 114kts
21-Jul-21 09:17 34.244754 -119.241333 291 4154ft 118kts
21-Jul-21 09:18 34.269155 -119.230336 69 5008ft 135kts
21-Jul-21 09:19 34.281149 -119.185468 72 5757ft 147kts
21-Jul-21 09:20 34.293547 -119.136451 72 6351ft 157kts
21-Jul-21 09:21 34.306513 -119.084599 72 6855ft 163kts
21-Jul-21 09:22 34.320018 -119.030526 72 6992ft 175kts
21-Jul-21 09:23 34.334047 -118.974081 73 6988ft 173kts
21-Jul-21 09:24 34.347873 -118.918333 73 6989ft 171kts
21-Jul-21 09:25 34.377490 -118.884468 11 7663ft 149kts
21-Jul-21 09:26 34.417665 -118.879632 5 8507ft 148kts
21-Jul-21 09:27 34.459409 -118.877177 3 9233ft 154kts
21-Jul-21 09:28 34.504155 -118.875078 3 9748ft 166kts
21-Jul-21 09:29 34.549219 -118.873050 2 10520ft 160kts
21-Jul-21 09:30 34.593909 -118.870978 0 11224ft 163kts
21-Jul-21 09:32 34.639509 -118.869038 1 11919ft 166kts
21-Jul-21 09:33 34.686045 -118.866950 1 12602ft 168kts
21-Jul-21 09:34 34.733102 -118.864839 1 13267ft 171kts
21-Jul-21 09:35 34.781081 -118.862690 1 13925ft 174kts
21-Jul-21 09:36 34.830882 -118.871201 342 14139ft 195kts
21-Jul-21 09:37 34.886218 -118.890031 342 13804ft 217kts
21-Jul-21 09:38 34.945258 -118.910313 340 13320ft 222kts
21-Jul-21 09:39 35.003504 -118.930270 340 12813ft 210kts
21-Jul-21 09:40 35.058240 -118.949096 341 12300ft 200kts
21-Jul-21 09:41 35.110923 -118.967430 341 11373ft 190kts
21-Jul-21 09:42 35.159501 -118.984755 342 10570ft 175kts
21-Jul-21 09:43 35.206005 -119.001081 342 9793ft 171kts
21-Jul-21 09:44 35.251245 -119.016817 343 9176ft 168kts
21-Jul-21 09:45 35.296109 -119.032173 343 8671ft 167kts
21-Jul-21 09:46 35.340923 -119.047553 343 8063ft 170kts
21-Jul-21 09:47 35.385666 -119.063070 343 6961ft 162kts
21-Jul-21 09:48 35.427572 -119.077632 343 6105ft 152kts
21-Jul-21 09:49 35.467261 -119.091443 343 5316ft 146kts
21-Jul-21 09:50 35.504788 -119.108310 335 4541ft 143kts
21-Jul-21 09:51 35.539563 -119.126844 335 4010ft 130kts
21-Jul-21 09:52 35.572000 -119.144184 335 3496ft 125kts
21-Jul-21 09:53 35.603464 -119.161028 334 2989ft 123kts
21-Jul-21 09:54 35.635769 -119.178378 334 2430ft 129kts
21-Jul-21 09:55 35.669128 -119.196100 334 1759ft 131kts
21-Jul-21 09:55 35.693188 -119.209310 333 1247ft 105kts
21-Jul-21 09:57 35.722325 -119.224742 330 624ft 89kts
21-Jul-21 09:58 35.742903 -119.235280 339 318ft 55kts
21-Jul-21 09:59 35.745313 -119.237567 285 318ft 0kts
21-Jul-21 09:59 35.745445 -119.237922 283 318ft 9kts
21-Jul-21 10:01 35.744292 -119.238257 81 318ft 0kts
21-Jul-21 10:01 35.744292 -119.238257 81 318ft 0kts
21-Jul-21 10:02 35.744292 -119.238257 81 318ft 0kts
21-Jul-21 10:04 35.744292 -119.238257 81 318ft 0kts
21-Jul-21 10:05 35.744292 -119.238257 81 318ft 0kts
21-Jul-21 10:06 35.744292 -119.238257 81 318ft 0kts
21-Jul-21 10:06 35.744292 -119.238257 81 318ft 0kts
21-Jul-21 10:07 35.744292 -119.238257 81 318ft 0kts
21-Jul-21 10:08 35.744292 -119.238257 81 318ft 0kts
21-Jul-21 10:10 35.744292 -119.238257 81 318ft 0kts
21-Jul-21 10:10 35.744292 -119.238257 81 318ft 0kts
21-Jul-21 10:11 35.744292 -119.238257 81 318ft 0kts
21-Jul-21 10:12 35.744292 -119.238257 81 318ft 0kts
21-Jul-21 10:13 35.744292 -119.238257 81 318ft 0kts

Navigation Log

Ident Type
Flight plan parsing failed, navigation log unavailable